ADDS METAR Data INFO
IDs: Format: Raw Decoded Include TAF

Data at: 0749 UTC 20 Feb 2018

KEVW 200653Z AUTO 24005KT 10SM BKN036 OVC070 M14/M18 A2966 RMK AO2 SLP113 T11441178 410671144
KEVW 200553Z AUTO 00000KT 10SM BKN034 OVC041 M13/M16 A2963 RMK AO2 SLP102 60001 T11331161 11111 21139 53018
KEVW 200453Z AUTO 26007KT 10SM BKN035 OVC095 M13/M16 A2961 RMK AO2 SLP083 T11281156
KEVW 200353Z AUTO 26010KT 10SM OVC100 M13/M16 A2957 RMK AO2 SLP077 T11281156
KEVW 200253Z AUTO 26009KT 10SM BKN055 BKN075 OVC090 M12/M14 A2957 RMK AO2 SLP068 60001 T11221144 53014
KEVW 200153Z AUTO 24008KT 10SM OVC070 M12/M14 A2955 RMK AO2 SLP056 T11221139
KEVW 200101Z AUTO 22003KT 6SM BR BKN044 OVC070 M12/M13 A2952 RMK AO2 T11171128
KEVW 200053Z AUTO 22004KT 2SM BR OVC040 M11/M13 A2952 RMK AO2 SNE51 SLP040 P0001 T11111128
KEVW 200050Z AUTO 24004KT 1 3/4SM -SN BR OVC036 M11/M13 A2952 RMK AO2 P0001
KEVW 200028Z AUTO 26004KT 1 1/4SM -SN BR OVC023 M11/M13 A2951 RMK AO2 P0001 T11111128
KEVW 200016Z AUTO 24004KT 3/4SM -SN BR VV017 M11/M13 A2950 RMK AO2 P0001 T11111128
KEVW 192353Z AUTO 23004KT 1/2SM -SN FZFG VV013 M11/M13 A2949 RMK AO2 SLP030 P0000 60000 T11111128 11111 21122 53016
KEVW 192336Z AUTO 21004KT 3/4SM -SN BR VV015 M11/M13 A2949 RMK AO2 P0000 T11111128
KEVW 192258Z AUTO 20005KT 1 1/2SM -SN BR BKN028 OVC037 M11/M13 A2948 RMK AO2 P0000 T11111128
KEVW 192253Z AUTO 20005KT 2SM -SN BR BKN030 OVC037 M11/M13 A2948 RMK AO2 SNE26B49 SLP025 P0000 T11111128
KEVW 192241Z AUTO 19005KT 3SM BR BKN030 OVC040 M11/M13 A2947 RMK AO2 SNE26 P0000 T11111128
KEVW 192217Z AUTO 19004KT 2SM -SN BR BKN021 OVC037 M12/M13 A2945 RMK AO2 P0000 T11171133
KEVW 192153Z AUTO 16003KT 2 1/2SM -SN BR SCT029 OVC035 M12/M14 A2945 RMK AO2 SLP014 P0000 T11171139
KEVW 192149Z AUTO 16004KT 1 3/4SM -SN BR SCT028 OVC036 M12/M14 A2944 RMK AO2 P0000
KEVW 192143Z AUTO 14004KT 1 1/4SM -SN BR BKN028 OVC036 M12/M14 A2945 RMK AO2 P0000 T11221139
KEVW 192130Z AUTO 12006KT 1SM -SN BR SCT024 OVC032 M12/M14 A2944 RMK AO2 P0000 T11221144
KEVW 192115Z AUTO 11007KT 1 1/2SM -SN BR BKN029 OVC036 M12/M14 A2944 RMK AO2 P0000 T11221144
KEVW 192108Z AUTO 11007KT 1 3/4SM -SN BR BKN029 OVC037 M12/M14 A2944 RMK AO2 P0000 T11221144
KEVW 192053Z AUTO 09009KT 1 1/4SM -SN BKN022 OVC033 M12/M15 A2943 RMK AO2 SLP013 P0000 60000 T11221150 51009
KEVW 192012Z AUTO 10009KT 1 1/2SM -SN BKN027 OVC035 M12/M15 A2943 RMK AO2 P0000 T11221150
KEVW 191953Z AUTO 10013KT 2SM -SN BKN025 BKN031 OVC045 M12/M15 A2943 RMK AO2 SLP011 P0000 T11221150
KEVW 191951Z AUTO 10013KT 2SM -SN FEW020 BKN025 OVC045 M12/M15 A2943 RMK AO2 P0000
KEVW 191940Z AUTO 09014KT 1SM -SN BR BKN016 OVC034 M12/M14 A2942 RMK AO2 P0000 T11221144
KEVW 191914Z AUTO 09015KT 3/4SM -SN VV010 M12/M15 A2943 RMK AO2 P0000 T11221150
KEVW 191906Z AUTO 09014KT 3/4SM -SN VV009 M12/M14 A2943 RMK AO2 P0000 T11171144
KEVW 191853Z AUTO 08014KT 3/4SM -SN VV010 M12/M14 A2943 RMK AO2 SLP006 P0000 T11171144
KEVW 191823Z AUTO 09010KT 3/4SM -SN BR VV011 M12/M14 A2940 RMK AO2 P0000 T11171139
KEVW 191753Z AUTO 08010KT 1/4SM +SN FZFG VV008 M12/M14 A2940 RMK AO2 SLP998 P0001 60002 T11171139 11072 21117 50010
KEVW 191729Z AUTO 08014KT 1/2SM SN FZFG VV010 M12/M13 A2939 RMK AO2 P0000 T11171133
KEVW 191705Z AUTO 08010KT 1/4SM +SN FZFG VV009 M11/M13 A2938 RMK AO2 P0000 T11061128
KEVW 191653Z AUTO 06006KT 1/2SM SN FZFG FEW007 BKN014 OVC024 M09/M11 A2937 RMK AO2 SLP978 P0001 T10891111
KEVW 191650Z AUTO 02006KT 1/2SM SN FZFG FEW007 BKN014 OVC024 M09/M11 A2938 RMK AO2 P0001
KEVW 191637Z AUTO 09008KT 3/4SM -SN BR BKN016 OVC024 M10/M12 A2937 RMK AO2 P0001 T11001117
KEVW 191553Z AUTO 07012KT 1/2SM SN FZFG VV012 M11/M12 A2936 RMK AO2 SLP981 P0000 T11061122
KEVW 191516Z AUTO 06014KT 3/4SM -SN BR VV014 M10/M12 A2936 RMK AO2 P0000 T11001117
KEVW 191453Z AUTO 07010KT 3/4SM -SN BR VV016 M09/M10 A2935 RMK AO2 SLP971 P0000 60000 T10891100 55000
KEVW 191424Z AUTO 04007KT 3/4SM -SN BR VV010 M08/M09 A2934 RMK AO2 P0000 T10781089
KEVW 191416Z AUTO 05007KT 1SM -SN BR VV011 M08/M09 A2934 RMK AO2 P0000 T10781089
KEVW 191409Z AUTO 05007KT 1 1/4SM -SN BR OVC015 M08/M09 A2935 RMK AO2 P0000 T10781089
KEVW 191401Z AUTO 05007KT 1 3/4SM -SN BR OVC021 M07/M09 A2935 RMK AO2 P0000 T10721094
KEVW 191353Z AUTO 06008KT 4SM -SN BR FEW013 OVC027 M07/M09 A2935 RMK AO2 SNB09 SLP967 P0000 T10721094
KEVW 191253Z AUTO 05006KT 10SM OVC038 M07/M09 A2935 RMK AO2 SNE10 SLP961 P0000 T10721089
KEVW 191201Z AUTO 07004KT 4SM -SN BR OVC042 M07/M08 A2935 RMK AO2 P0000 T10721078
KEVW 191148Z AUTO 07006KT 2SM -SN BR OVC030 M07/M08 A2936 RMK AO2 SLP958 P0002 60015 70038 T10721083 11067 21072 58008
KEVW 191147Z AUTO 07006KT 2SM -SN BR OVC030 M07/M08 A2936 RMK AO2 P0002
KEVW 191140Z AUTO 07005KT 1 3/4SM -SN BR OVC021 M07/M08 A2936 RMK AO2 P0002 T10721078
KEVW 191130Z AUTO 06005KT 1 1/2SM -SN BR OVC017 M07/M08 A2937 RMK AO2 P0002 T10721078
KEVW 191118Z AUTO 07005KT 1SM -SN BR VV013 M07/M08 A2937 RMK AO2 P0001 T10671078
KEVW 191110Z AUTO 06004KT 3/4SM -SN BR VV011 M07/M08 A2937 RMK AO2 P0001 T10671078
KEVW 191101Z AUTO 06004KT 3/4SM -SN BR VV009 M07/M08 A2938 RMK AO2 P0001 T10671078
KEVW 191053Z AUTO 09004KT 3/4SM -SN BR VV010 M07/M08 A2939 RMK AO2 SLP970 P0002 T10671078
KEVW 191049Z AUTO 08004KT 3/4SM -SN BR VV010 M07/M08 A2939 RMK AO2 P0002
KEVW 191042Z AUTO 08004KT 1SM -SN BR VV012 M07/M08 A2939 RMK AO2 P0002 T10671078
KEVW 191028Z AUTO 07006KT 1 1/2SM -SN BR OVC016 M07/M08 A2939 RMK AO2 P0001 T10671078
KEVW 191021Z AUTO 07005KT 1 3/4SM -SN BR OVC016 M07/M08 A2939 RMK AO2 P0001 T10671078
KEVW 191007Z AUTO 05003KT 1SM -SN BR VV015 M07/M08 A2939 RMK AO2 P0001 T10671078
KEVW 191001Z AUTO 05004KT 3/4SM -SN BR VV013 M07/M08 A2938 RMK AO2 P0001 T10671078
KEVW 190953Z AUTO 07005KT 1SM -SN BR VV013 M07/M08 A2939 RMK AO2 SLP965 P0002 T10671078
KEVW 190938Z AUTO 07008KT 1SM -SN BR VV014 M07/M08 A2938 RMK AO2 P0002 T10721078
KEVW 190918Z AUTO 07007KT 3/4SM -SN BR VV010 M07/M08 A2940 RMK AO2 P0001 T10671078
KEVW 190853Z AUTO 05005KT 3/4SM -SN BR VV008 M07/M08 A2941 RMK AO2 SLP962 P0006 60009 T10671078 50000
KEVW 190835Z AUTO 04005KT 1/2SM SN FZFG VV006 M07/M08 A2942 RMK AO2 P0004 T10671078
KEVW 190822Z AUTO 05005KT 1/2SM SN FZFG VV007 M07/M08 A2942 RMK AO2 P0002 T10671078
KEVW 190803Z AUTO 04005KT 3/4SM -SN BR VV014 M07/M08 A2942 RMK AO2 P0000 T10671078
KEVW 190753Z AUTO 04006KT 1 1/2SM -SN BR OVC018 M07/M08 A2942 RMK AO2 SLP960 P0002 T10671078
KEVW 190748Z AUTO 05006KT 1 3/4SM -SN BR OVC017 M07/M08 A2941 RMK AO2 P0002
KEVW 190739Z AUTO 05005KT 1 1/2SM -SN BR OVC017 M07/M07 A2941 RMK AO2 P0002 T10671072
KEVW 190728Z AUTO 07007KT 1 1/4SM -SN BR OVC013 M07/M07 A2941 RMK AO2 P0002 T10671072
KEVW 190701Z AUTO 05006KT 3/4SM -SN BR VV014 M07/M08 A2941 RMK AO2 PRESFR P0000 T10671078
KEVW 190653Z AUTO 04005KT 1 1/4SM -SN BR OVC017 M07/M07 A2944 RMK AO2 SLP967 P0001 T10671072 400501067
KEVW 190635Z AUTO 04007KT 1 1/4SM -SN BR OVC020 M07/M08 A2945 RMK AO2 P0001 T10671078
KEVW 190618Z AUTO 04007KT 1SM -SN BR VV013 M07/M07 A2945 RMK AO2 P0000 T10671072
KEVW 190608Z AUTO 04010KT 3/4SM -SN BR VV011 M07/M08 A2944 RMK AO2 P0000 T10671078
KEVW 190553Z AUTO 03010KT 1/2SM SN FZFG VV008 M07/M07 A2946 RMK AO2 SLP978 P0004 60020 T10671072 11033 21067 56006
KEVW 190551Z AUTO 03009KT 1/2SM SN FZFG VV007 M07/M07 A2946 RMK AO2 P0004
KEVW 190525Z AUTO 02011KT 1/2SM SN FZFG VV006 M07/M07 A2949 RMK AO2 P0002 T10671072
KEVW 190506Z AUTO 04009KT 1/2SM SN FZFG VV008 M06/M07 A2948 RMK AO2 P0001 T10611072
KEVW 190453Z AUTO 04006KT 3/4SM -SN BR VV010 M06/M07 A2947 RMK AO2 SLP977 P0004 T10611072
KEVW 190439Z AUTO 04005KT 3/4SM -SN BR VV010 M07/M07 A2948 RMK AO2 P0003 T10671072
KEVW 190353Z AUTO 35007KT 1/2SM SN FZFG VV007 M06/M07 A2948 RMK AO2 SLP977 P0006 T10611067
KEVW 190337Z AUTO 06009KT 1/2SM SN FZFG VV006 M06/M07 A2949 RMK AO2 P0004 T10611067
KEVW 190302Z AUTO 10010KT 3/4SM -SN BR VV008 M06/M07 A2948 RMK AO2 P0000 T10611067
KEVW 190253Z AUTO 10009KT 1/2SM SN FZFG VV006 M06/M07 A2948 RMK AO2 SLP980 P0003 60006 T10611067 50002
KEVW 190246Z AUTO 09010KT 1/2SM SN FZFG VV007 M06/M07 A2948 RMK AO2 P0003 T10561067
KEVW 190229Z AUTO 07008KT 3/4SM -SN BR VV012 M06/M07 A2949 RMK AO2 P0001 T10561067
KEVW 190224Z AUTO 06006KT 1 1/2SM -SN BR OVC015 M06/M07 A2949 RMK AO2 P0001 T10611067
KEVW 190221Z AUTO 03006KT 2SM -SN BR OVC015 M06/M07 A2949 RMK AO2 P0001 T10611067
KEVW 190214Z AUTO 36006KT 1SM -SN BR VV015 M06/M07 A2950 RMK AO2 P0001 T10611067
KEVW 190153Z AUTO 01009KT 3/4SM -SN BR VV010 M06/M07 A2950 RMK AO2 SLP986 P0002 T10611067
KEVW 190053Z AUTO 36014KT 1/4SM SN FZFG FEW004 OVC009 M05/M06 A2949 RMK AO2 SLP979 P0001 T10501061
KEVW 190041Z AUTO 36013KT 3/4SM -SN BR FEW004 OVC010 M05/M06 A2949 RMK AO2 P0001 T10501056
KEVW 182353Z AUTO 30012KT 1/4SM +SN FZFG FEW005 OVC009 M03/M04 A2947 RMK AO2 SLP966 P0002 60003 T10331044 10039 21033 53000
KEVW 182340Z AUTO 32007KT 1/2SM SN FZFG FEW008 OVC015 M03/M04 A2947 RMK AO2 P0001 T10281039
KEVW 182327Z AUTO 31007KT 3/4SM -SN BR VV018 M03/M03 A2947 RMK AO2 P0001 T10281033
KEVW 182300Z AUTO 34005KT 1SM -SN BR BKN016 OVC020 M03/M04 A2946 RMK AO2 P0000 T10331039
KEVW 182253Z AUTO 35004KT 1 1/2SM -SN BR BKN014 OVC020 M03/M03 A2946 RMK AO2 SLP962 P0001 T10331033
KEVW 182245Z AUTO 36006KT 1SM -SN BR FEW004 BKN014 OVC019 M03/M04 A2946 RMK AO2 P0001 T10331039
KEVW 182153Z AUTO 34013KT 1/4SM SN FZFG VV008 M03/M03 A2947 RMK AO2 PK WND 26032/2101 SLP961 P0000 T10281033
KEVW 182141Z AUTO 33012KT 3/4SM -SN BR BKN007 BKN018 OVC034 M03/M03 A2948 RMK AO2 PK WND 26032/2101 P0000 T10281033
KEVW 182133Z AUTO 33012G23KT 1 1/4SM -SN BR SCT007 BKN022 OVC034 M02/M03 A2948 RMK AO2 PK WND 26032/2101 P0000 T10171028
KEVW 182126Z AUTO 30019G24KT 1 3/4SM -SN BR FEW007 BKN024 OVC034 00/M02 A2947 RMK AO2 PK WND 26032/2101 P0000 T00001017
KEVW 182110Z AUTO 28019G32KT 2 1/2SM -SN FEW020 BKN026 OVC036 01/M02 A2947 RMK AO2 PK WND 26032/2101 P0000 T00061022
KEVW 182053Z AUTO 25022G31KT 8SM -SN BKN035 OVC045 02/M04 A2947 RMK AO2 PK WND 24031/2049 SNB50 SLP945 P0000 60000 T00221044 57016
KEVW 181953Z AUTO 25025G30KT 10SM FEW045 BKN055 OVC075 03/M04 A2949 RMK AO2 PK WND 24043/1916 SLP952 T00281044